Time;durP1;ratioP1;P1;durP2;ratioP2;P2;SDS_P1;SDS_P2;PMS_P1;PMS_P2;Temp;Humidity;BMP_temperature;BMP_pressure;BME280_temperature;BME280_humidity;BME280_pressure;Samples;Min_cycle;Max_cycle;Signal;HPM_P1;HPM_P2
2020/12/12 00:00:15;;;;;;;6.13;2.95;;;;;;;16.93;54.28;99155.53;4816253;29;20038;-79
2020/12/12 00:02:40;;;;;;;4.20;2.80;;;;;;;16.95;54.10;99169.31;4826532;29;20034;-79
2020/12/12 00:05:06;;;;;;;5.18;2.95;;;;;;;16.97;54.10;99167.53;4804268;29;20046;-79
2020/12/12 00:07:32;;;;;;;6.60;3.33;;;;;;;16.97;54.08;99161.50;4780223;29;20035;-80
2020/12/12 00:09:57;;;;;;;6.00;3.05;;;;;;;16.96;54.04;99171.03;4796539;29;20138;-80
2020/12/12 00:12:23;;;;;;;4.95;2.90;;;;;;;16.95;53.86;99166.72;4808471;29;20119;-79
2020/12/12 00:14:48;;;;;;;5.13;2.90;;;;;;;16.94;54.06;99164.16;4791737;29;20036;-79
2020/12/12 00:17:14;;;;;;;5.32;2.85;;;;;;;16.94;53.88;99167.63;4808129;29;20039;-78
2020/12/12 00:19:39;;;;;;;5.53;2.58;;;;;;;16.94;53.93;99184.97;4793093;29;20063;-79
2020/12/12 00:22:04;;;;;;;5.85;2.60;;;;;;;16.95;54.26;99171.94;4811042;29;20027;-80
2020/12/12 00:24:30;;;;;;;4.60;2.80;;;;;;;16.93;53.74;99178.91;4822165;29;20129;-80
2020/12/12 00:26:56;;;;;;;5.03;2.58;;;;;;;16.93;53.64;99186.72;4810014;29;20550;-80
2020/12/12 00:29:22;;;;;;;4.57;2.58;;;;;;;16.92;53.82;99174.63;4802146;29;20080;-80
2020/12/12 00:31:53;;;;;;;5.80;2.78;;;;;;;16.91;53.75;99175.53;4776475;30;20032;-80
2020/12/12 00:34:19;;;;;;;3.72;2.10;;;;;;;16.90;53.53;99173.84;4823847;29;20042;-79
2020/12/12 00:36:45;;;;;;;4.57;2.45;;;;;;;16.88;53.55;99183.44;4815409;29;20423;-79
2020/12/12 00:39:10;;;;;;;5.03;2.50;;;;;;;16.90;53.88;99183.34;4807591;29;20042;-79
2020/12/12 00:41:39;;;;;;;4.10;2.30;;;;;;;16.90;53.63;99167.75;4793194;29;20062;-78
2020/12/12 00:44:07;;;;;;;3.88;2.40;;;;;;;16.89;53.72;99179.91;4799053;29;20505;-79
2020/12/12 00:46:34;;;;;;;4.70;2.65;;;;;;;16.89;53.54;99177.31;4797471;29;20072;-79
2020/12/12 00:48:59;;;;;;;3.75;2.20;;;;;;;16.89;53.44;99182.50;4812340;29;20046;-80
2020/12/12 00:51:30;;;;;;;3.60;2.25;;;;;;;16.91;53.39;99182.47;4792587;29;20034;-80
2020/12/12 00:53:56;;;;;;;3.20;1.92;;;;;;;16.90;53.22;99179.03;4799919;29;20059;-80
2020/12/12 00:56:21;;;;;;;2.90;2.13;;;;;;;16.88;53.45;99183.44;4803866;29;20134;-81
2020/12/12 00:58:47;;;;;;;3.33;2.10;;;;;;;16.88;53.39;99182.59;4802556;29;20035;-81
2020/12/12 01:01:13;;;;;;;3.70;2.50;;;;;;;16.88;53.52;99186.03;4796803;29;20035;-80
2020/12/12 01:03:42;;;;;;;4.25;2.20;;;;;;;16.88;53.25;99183.44;4807661;29;20046;-80
2020/12/12 01:06:15;;;;;;;4.07;2.30;;;;;;;16.89;53.39;99179.06;4779845;29;20066;-80
2020/12/12 01:08:41;;;;;;;4.47;2.20;;;;;;;16.89;53.25;99174.72;4796481;29;20048;-79
2020/12/12 01:11:08;;;;;;;3.75;2.10;;;;;;;16.87;53.10;99176.50;4794191;29;20030;-79
2020/12/12 01:13:34;;;;;;;3.78;2.10;;;;;;;16.84;53.19;99182.66;4810326;29;20119;-79
2020/12/12 01:16:05;;;;;;;3.95;2.25;;;;;;;16.85;53.27;99186.97;4796688;29;20475;-79
2020/12/12 01:18:30;;;;;;;3.22;2.08;;;;;;;16.86;53.23;99191.25;4806881;29;20051;-79
2020/12/12 01:20:55;;;;;;;5.15;2.22;;;;;;;16.85;53.32;99196.50;4797843;29;20039;-80
2020/12/12 01:23:21;;;;;;;3.35;2.15;;;;;;;16.85;53.18;99201.69;4780393;29;20073;-80
2020/12/12 01:25:46;;;;;;;3.22;1.90;;;;;;;16.85;53.21;99199.09;4790591;29;20077;-80
2020/12/12 01:28:12;;;;;;;3.55;1.90;;;;;;;16.85;53.20;99209.50;4795246;29;20049;-80
2020/12/12 01:30:37;;;;;;;3.33;2.08;;;;;;;16.85;53.25;99215.56;4795640;29;20031;-80
2020/12/12 01:33:02;;;;;;;3.45;2.00;;;;;;;16.85;53.01;99218.16;4795455;29;20089;-80
2020/12/12 01:35:28;;;;;;;3.35;2.20;;;;;;;16.82;52.92;99212.19;4819912;29;20026;-81
2020/12/12 01:37:53;;;;;;;3.38;1.85;;;;;;;16.84;53.02;99218.19;4811074;29;20031;-81
2020/12/12 01:40:18;;;;;;;2.60;1.85;;;;;;;16.84;53.13;99218.19;4781983;29;20047;-80
2020/12/12 01:42:45;;;;;;;5.00;2.10;;;;;;;16.84;52.91;99215.59;4808737;29;20034;-80
2020/12/12 01:45:11;;;;;;;2.67;1.92;;;;;;;16.84;52.84;99223.41;4809932;29;20087;-80
2020/12/12 01:47:37;;;;;;;3.97;2.00;;;;;;;16.83;52.87;99221.69;4804694;29;20042;-81
2020/12/12 01:50:06;;;;;;;2.92;1.65;;;;;;;16.83;52.94;99216.47;4794230;29;20126;-81
2020/12/12 01:52:32;;;;;;;2.70;1.95;;;;;;;16.84;52.99;99223.41;4797700;29;20070;-81
2020/12/12 01:54:59;;;;;;;3.40;1.95;;;;;;;16.84;52.94;99226.00;4806991;29;20031;-80
2020/12/12 01:57:25;;;;;;;2.72;1.80;;;;;;;16.82;52.80;99228.63;4821808;29;20030;-81
2020/12/12 01:59:51;;;;;;;3.25;1.83;;;;;;;16.82;52.75;99241.63;4783300;29;20068;-81
2020/12/12 02:02:19;;;;;;;3.15;1.83;;;;;;;16.84;52.89;99245.03;4800036;29;20030;-81
2020/12/12 02:04:52;;;;;;;2.45;1.60;;;;;;;16.81;52.91;99237.34;4800226;29;20440;-80
2020/12/12 02:07:19;;;;;;;3.33;2.20;;;;;;;16.82;52.76;99245.97;4792124;29;20109;-80
2020/12/12 02:09:46;;;;;;;2.90;1.75;;;;;;;16.78;52.72;99239.97;4776934;29;20402;-79
2020/12/12 02:12:12;;;;;;;2.20;1.60;;;;;;;16.82;52.81;99240.78;4778518;29;20042;-80
2020/12/12 02:14:38;;;;;;;3.88;1.90;;;;;;;16.82;53.02;99248.56;4821052;29;20026;-81
2020/12/12 02:17:05;;;;;;;2.60;1.80;;;;;;;16.81;52.52;99239.06;4779226;29;20041;-80
2020/12/12 02:19:32;;;;;;;3.35;1.90;;;;;;;16.78;52.92;99244.34;4809379;29;20047;-80
2020/12/12 02:21:58;;;;;;;2.55;1.80;;;;;;;16.79;52.81;99246.06;4795860;29;20125;-80
2020/12/12 02:24:24;;;;;;;3.20;1.42;;;;;;;16.79;52.75;99240.84;4800787;29;20054;-80
2020/12/12 02:26:49;;;;;;;2.20;1.52;;;;;;;16.79;52.73;99246.91;4801885;29;20039;-80
2020/12/12 02:29:16;;;;;;;2.67;1.98;;;;;;;16.78;52.92;99249.53;4807989;29;20041;-80
2020/12/12 02:31:42;;;;;;;2.90;1.90;;;;;;;16.79;52.81;99252.09;4795625;29;20041;-79
2020/12/12 02:34:08;;;;;;;4.47;1.77;;;;;;;16.78;52.52;99252.13;4791333;29;20034;-79
2020/12/12 02:36:38;;;;;;;2.58;1.60;;;;;;;16.79;52.57;99254.69;4807536;29;20034;-79
2020/12/12 02:39:05;;;;;;;2.60;1.92;;;;;;;16.79;52.41;99257.28;4809451;29;20071;-79
2020/12/12 02:41:31;;;;;;;2.95;1.63;;;;;;;16.78;52.65;99255.56;4795170;29;20442;-79
2020/12/12 02:43:56;;;;;;;2.50;1.60;;;;;;;16.78;52.60;99254.72;4798903;29;20069;-79
2020/12/12 02:46:22;;;;;;;2.78;1.52;;;;;;;16.76;52.66;99252.16;4810955;29;20375;-79
2020/12/12 02:48:49;;;;;;;2.67;1.88;;;;;;;16.79;52.44;99253.84;4791389;29;20027;-79
2020/12/12 02:51:16;;;;;;;2.83;1.50;;;;;;;16.78;52.58;99254.72;4791063;29;20034;-80
2020/12/12 02:53:42;;;;;;;2.40;1.33;;;;;;;16.76;52.46;99251.31;4799634;29;20030;-80
2020/12/12 02:56:08;;;;;;;2.92;1.98;;;;;;;16.76;52.69;99259.97;4809893;29;20027;-79
2020/12/12 02:58:34;;;;;;;2.22;1.70;;;;;;;16.77;52.59;99258.22;4808621;29;20432;-79
2020/12/12 03:00:59;;;;;;;2.78;1.77;;;;;;;16.76;52.62;99259.13;4815279;29;20046;-79
2020/12/12 03:03:24;;;;;;;2.83;1.90;;;;;;;16.75;52.58;99260.03;4806500;29;20039;-79
2020/12/12 03:05:50;;;;;;;2.67;1.75;;;;;;;16.75;52.75;99266.06;4821917;29;20038;-79
2020/12/12 03:08:15;;;;;;;2.33;1.60;;;;;;;16.74;52.78;99255.72;4809374;29;20030;-79
2020/12/12 03:10:41;;;;;;;2.30;1.48;;;;;;;16.74;52.56;99260.91;4789778;29;20393;-79
2020/12/12 03:13:06;;;;;;;2.15;1.40;;;;;;;16.75;52.58;99258.28;4808449;29;20065;-80
2020/12/12 03:15:31;;;;;;;2.65;1.70;;;;;;;16.76;52.39;99269.50;4783354;30;20027;-81
2020/12/12 03:17:57;;;;;;;2.17;1.50;;;;;;;16.75;52.39;99266.06;4802353;29;20038;-81
2020/12/12 03:20:23;;;;;;;2.03;1.42;;;;;;;16.77;52.51;99260.84;4780127;30;20047;-81
2020/12/12 03:22:48;;;;;;;2.88;1.73;;;;;;;16.74;52.32;99271.31;4776339;29;20130;-81
2020/12/12 03:25:14;;;;;;;2.22;1.60;;;;;;;16.74;52.38;99284.28;4815693;29;20439;-81
2020/12/12 03:27:39;;;;;;;3.00;1.40;;;;;;;16.74;52.33;99286.88;4790522;29;20037;-81
2020/12/12 03:30:04;;;;;;;2.00;1.48;;;;;;;16.73;52.46;99277.41;4795649;29;20039;-81
2020/12/12 03:32:30;;;;;;;2.35;1.63;;;;;;;16.74;52.47;99281.69;4818024;29;20038;-81
2020/12/12 03:34:55;;;;;;;2.00;1.42;;;;;;;16.73;52.57;99280.00;4799650;29;20041;-81
2020/12/12 03:37:21;;;;;;;2.20;1.23;;;;;;;16.73;52.42;99278.25;4813717;29;20042;-81
2020/12/12 03:39:46;;;;;;;2.60;1.55;;;;;;;16.73;52.40;99285.19;4798195;29;20042;-80
2020/12/12 03:42:11;;;;;;;2.13;1.30;;;;;;;16.74;51.84;99282.53;4785440;29;20038;-80
2020/12/12 03:44:37;;;;;;;2.25;1.45;;;;;;;16.73;52.47;99286.03;4780120;30;20031;-81
2020/12/12 03:47:02;;;;;;;1.85;1.40;;;;;;;16.73;52.39;99282.59;4813302;29;20039;-80
2020/12/12 03:49:28;;;;;;;2.20;1.40;;;;;;;16.72;52.56;99286.09;4806627;29;20058;-80
2020/12/12 03:51:53;;;;;;;1.88;1.50;;;;;;;16.73;52.26;99286.03;4825064;29;20042;-81
2020/12/12 03:54:18;;;;;;;1.80;1.40;;;;;;;16.73;52.39;99287.81;4813060;29;20057;-81
2020/12/12 03:56:44;;;;;;;2.30;1.50;;;;;;;16.72;52.46;99286.09;4830359;29;20030;-80
2020/12/12 03:59:09;;;;;;;1.85;1.50;;;;;;;16.72;52.38;99289.53;4791825;29;20061;-80
2020/12/12 04:01:34;;;;;;;1.75;1.27;;;;;;;16.71;52.25;99290.44;4791450;29;20038;-80
2020/12/12 04:04:00;;;;;;;2.00;1.65;;;;;;;16.72;52.19;99286.94;4787765;29;20047;-81
2020/12/12 04:06:25;;;;;;;1.90;1.40;;;;;;;16.72;52.22;99281.72;4789662;29;20050;-81
2020/12/12 04:08:50;;;;;;;1.88;1.30;;;;;;;16.71;52.41;99289.59;4782825;29;20031;-79
2020/12/12 04:11:16;;;;;;;1.88;1.40;;;;;;;16.71;52.42;99279.19;4812172;29;20034;-79
2020/12/12 04:13:41;;;;;;;1.90;1.30;;;;;;;16.70;52.26;99296.53;4810078;29;20551;-79
2020/12/12 04:16:07;;;;;;;1.88;1.40;;;;;;;16.70;52.36;99293.06;4805662;29;20588;-80
2020/12/12 04:18:33;;;;;;;1.58;1.20;;;;;;;16.71;52.08;99293.03;4803328;29;20058;-80
2020/12/12 04:20:58;;;;;;;1.90;1.27;;;;;;;16.71;52.18;99292.19;4796575;29;20043;-80
2020/12/12 04:23:23;;;;;;;1.73;1.30;;;;;;;16.67;52.35;99300.06;4796427;29;20121;-80
2020/12/12 04:25:49;;;;;;;2.40;1.30;;;;;;;16.68;52.34;99295.72;4795764;29;20372;-80
2020/12/12 04:28:14;;;;;;;1.83;1.40;;;;;;;16.69;52.38;99302.63;4819351;29;20039;-80
2020/12/12 04:30:39;;;;;;;1.67;1.10;;;;;;;16.71;52.20;99305.19;4788670;29;20042;-81
2020/12/12 04:33:05;;;;;;;1.63;1.20;;;;;;;16.70;52.30;99308.66;4805136;29;20519;-80
2020/12/12 04:35:30;;;;;;;1.38;1.05;;;;;;;16.69;52.20;99315.59;4791178;29;20059;-80
2020/12/12 04:37:56;;;;;;;2.20;1.30;;;;;;;16.69;52.30;99317.34;4797056;29;20030;-81
2020/12/12 04:40:21;;;;;;;1.33;1.17;;;;;;;16.69;52.30;99322.56;4796045;29;20034;-81
2020/12/12 04:42:48;;;;;;;1.40;1.13;;;;;;;16.67;52.30;99320.00;4819907;29;20064;-81
2020/12/12 04:45:13;;;;;;;1.52;1.15;;;;;;;16.69;52.20;99319.97;4796480;29;20042;-81
2020/12/12 04:47:43;;;;;;;2.63;1.60;;;;;;;16.67;52.18;99326.03;4805047;29;20486;-81
2020/12/12 04:50:09;;;;;;;2.47;1.40;;;;;;;16.67;52.26;99328.63;4794639;29;20057;-81
2020/12/12 04:52:40;;;;;;;1.80;1.50;;;;;;;16.67;52.17;99328.63;4807795;29;20031;-81
2020/12/12 04:55:06;;;;;;;2.65;1.40;;;;;;;16.65;52.20;99334.75;4815343;29;20023;-81
2020/12/12 04:57:37;;;;;;;2.17;1.35;;;;;;;16.66;52.12;99333.88;4819355;29;20034;-81
2020/12/12 05:00:11;;;;;;;1.92;1.20;;;;;;;16.64;52.15;99331.31;4802975;29;20058;-81
2020/12/12 05:02:36;;;;;;;2.38;1.42;;;;;;;16.65;52.14;99329.56;4816748;29;20026;-81
2020/12/12 05:05:03;;;;;;;1.50;1.30;;;;;;;16.65;52.09;99329.56;4807361;29;20106;-81
2020/12/12 05:07:29;;;;;;;2.08;1.40;;;;;;;16.65;52.15;99327.81;4791492;29;20031;-81
2020/12/12 05:09:54;;;;;;;1.98;1.38;;;;;;;16.66;52.13;99333.88;4795368;29;20165;-81
2020/12/12 05:12:21;;;;;;;2.05;1.17;;;;;;;16.67;52.23;99335.56;4830602;29;20027;-80
2020/12/12 05:14:50;;;;;;;1.67;1.30;;;;;;;16.66;52.25;99345.13;4829023;29;20042;-81
2020/12/12 05:17:15;;;;;;;1.88;1.20;;;;;;;16.64;52.13;99344.31;4797770;29;20449;-80
2020/12/12 05:19:41;;;;;;;1.60;1.30;;;;;;;16.64;52.30;99339.13;4802341;29;20048;-80
2020/12/12 05:22:06;;;;;;;1.83;1.30;;;;;;;16.64;52.06;99343.47;4808926;29;20038;-80
2020/12/12 05:24:32;;;;;;;1.48;1.00;;;;;;;16.64;52.13;99343.47;4804052;29;20035;-80
2020/12/12 05:27:01;;;;;;;1.40;1.00;;;;;;;16.65;52.25;99339.97;4801657;29;20094;-80
2020/12/12 05:29:27;;;;;;;2.00;1.23;;;;;;;16.64;52.11;99333.09;4811576;29;20061;-80
2020/12/12 05:31:55;;;;;;;1.90;1.27;;;;;;;16.64;52.16;99340.88;4806318;29;20042;-80
2020/12/12 05:34:20;;;;;;;1.65;1.20;;;;;;;16.65;52.12;99346.00;4823219;29;20050;-81
2020/12/12 05:36:45;;;;;;;1.60;1.17;;;;;;;16.64;51.99;99341.72;4788316;29;20074;-81
2020/12/12 05:39:13;;;;;;;1.83;1.30;;;;;;;16.65;51.97;99346.00;4828537;29;20037;-81
2020/12/12 05:41:40;;;;;;;1.77;1.20;;;;;;;16.62;52.26;99356.50;4823897;29;20055;-81
2020/12/12 05:44:06;;;;;;;1.80;1.30;;;;;;;16.64;52.03;99353.84;4821819;29;20038;-81
2020/12/12 05:46:32;;;;;;;1.63;1.10;;;;;;;16.64;52.08;99359.06;4826093;29;20023;-80
2020/12/12 05:48:58;;;;;;;1.70;1.20;;;;;;;16.65;51.93;99360.75;4802756;29;20047;-81
2020/12/12 05:51:30;;;;;;;1.02;0.93;;;;;;;16.62;51.91;99358.25;4806394;29;20030;-80
2020/12/12 05:53:56;;;;;;;1.40;1.10;;;;;;;16.60;52.18;99373.88;4822172;29;20034;-81
2020/12/12 05:56:26;;;;;;;2.47;1.10;;;;;;;16.61;52.07;99364.31;4815226;29;20038;-80
2020/12/12 05:58:54;;;;;;;1.38;1.08;;;;;;;16.62;51.99;99376.44;4800290;29;20567;-80
2020/12/12 06:01:27;;;;;;;1.83;1.20;;;;;;;16.63;51.59;99378.13;4823593;29;20524;-80
2020/12/12 06:04:09;;;;;;;1.63;1.17;;;;;;;16.62;52.01;99384.22;4824709;29;20039;-80
2020/12/12 06:06:45;;;;;;;1.65;1.20;;;;;;;16.61;52.24;99379.91;4819806;29;20031;-80
2020/12/12 06:09:14;;;;;;;1.38;1.02;;;;;;;16.62;52.01;99381.63;4824248;29;20037;-81
2020/12/12 06:11:44;;;;;;;2.30;1.17;;;;;;;16.61;52.04;99388.56;4810512;29;20037;-81
2020/12/12 06:14:10;;;;;;;1.48;1.00;;;;;;;16.61;52.12;99388.56;4813962;29;20023;-79
2020/12/12 06:16:37;;;;;;;2.15;1.17;;;;;;;16.59;51.95;99387.75;4811198;29;20035;-79
2020/12/12 06:19:13;;;;;;;1.50;1.05;;;;;;;16.60;52.07;99389.44;4834047;29;20032;-81
2020/12/12 06:21:41;;;;;;;1.48;1.10;;;;;;;16.59;51.77;99389.47;4833247;29;20098;-81
2020/12/12 06:24:10;;;;;;;1.20;1.05;;;;;;;16.60;52.01;99391.19;4820912;29;20027;-81
2020/12/12 06:26:57;;;;;;;0.93;0.80;;;;;;;16.60;52.05;99391.19;4834095;29;20014;-80
2020/12/12 06:29:28;;;;;;;1.15;0.93;;;;;;;16.58;51.91;99388.63;4811830;29;20034;-79
2020/12/12 06:31:54;;;;;;;1.05;0.95;;;;;;;16.59;51.91;99390.34;4802922;29;20039;-79
2020/12/12 06:34:52;;;;;;;1.27;0.90;;;;;;;16.60;52.01;99396.41;4816604;29;20495;-79
2020/12/12 06:37:34;;;;;;;1.55;1.00;;;;;;;16.59;51.95;99399.88;4784917;29;20073;-79
2020/12/12 06:40:17;;;;;;;1.30;0.90;;;;;;;16.58;52.10;99408.56;4828686;29;20057;-79
2020/12/12 06:42:45;;;;;;;1.50;1.20;;;;;;;16.58;51.94;99419.81;4806610;29;20034;-79
2020/12/12 06:45:30;;;;;;;1.05;0.90;;;;;;;16.57;51.98;99419.84;4811509;29;20038;-79
2020/12/12 06:47:55;;;;;;;3.22;1.27;;;;;;;16.69;52.54;99421.25;4814370;29;20417;-78
2020/12/12 06:50:24;;;;;;;2.33;1.38;;;;;;;16.78;52.92;99427.03;4804405;29;20035;-78
2020/12/12 06:52:50;;;;;;;2.05;1.50;;;;;;;16.82;52.88;99425.22;4810447;29;20072;-77
2020/12/12 06:55:18;;;;;;;3.58;1.50;;;;;;;16.85;53.11;99432.94;4808287;29;20031;-77
2020/12/12 06:57:46;;;;;;;1.63;1.27;;;;;;;16.89;53.17;99436.31;4808892;29;20098;-78
2020/12/12 07:00:29;;;;;;;2.45;1.35;;;;;;;16.94;53.26;99437.00;4817858;29;20041;-79
2020/12/12 07:03:03;;;;;;;7.05;1.90;;;;;;;17.00;53.47;99442.88;4811416;29;20038;-79
2020/12/12 07:05:35;;;;;;;2.83;1.70;;;;;;;17.04;53.50;99443.66;4809030;29;20509;-78
2020/12/12 07:08:05;;;;;;;4.05;1.70;;;;;;;17.09;53.63;99451.31;4804367;29;20116;-78
2020/12/12 07:10:32;;;;;;;2.28;1.50;;;;;;;17.10;53.38;99443.47;4799714;29;20069;-79
2020/12/12 07:13:00;;;;;;;2.83;1.40;;;;;;;17.15;53.22;99451.13;4792886;29;20096;-78
2020/12/12 07:15:30;;;;;;;2.88;1.48;;;;;;;17.16;53.47;99451.09;4814968;29;20054;-78
2020/12/12 07:18:04;;;;;;;2.50;1.77;;;;;;;17.19;53.54;99450.16;4792557;29;20027;-77
2020/12/12 07:20:33;;;;;;;;;;;;;;;17.21;53.46;99456.16;4804528;29;20058;-77
2020/12/12 07:23:01;;;;;;;2.88;1.40;;;;;;;17.19;53.54;99453.59;4792186;29;20416;-77
2020/12/12 07:25:28;;;;;;;3.58;1.38;;;;;;;17.19;53.86;99458.78;4803098;29;20038;-76
2020/12/12 07:27:53;;;;;;;2.05;1.50;;;;;;;17.19;53.69;99461.38;4780397;29;20055;-76
2020/12/12 07:30:19;;;;;;;3.47;1.33;;;;;;;17.21;54.03;99464.78;4804899;29;20050;-79
2020/12/12 07:32:45;;;;;;;2.60;1.20;;;;;;;17.20;53.71;99470.03;4803330;29;20069;-77
2020/12/12 07:35:11;;;;;;;1.73;1.20;;;;;;;17.20;54.10;99473.50;4780355;29;20107;-77
2020/12/12 07:37:36;;;;;;;2.30;1.55;;;;;;;17.21;54.30;99482.16;4793250;29;20058;-76
2020/12/12 07:40:03;;;;;;;4.28;1.30;;;;;;;17.22;54.11;99483.84;4796085;29;20113;-77
2020/12/12 07:42:33;;;;;;;2.67;1.58;;;;;;;17.22;54.14;99489.91;4809896;29;20046;-76
2020/12/12 07:45:25;;;;;;;2.40;1.30;;;;;;;17.22;54.40;99492.50;4796140;29;20031;-76
2020/12/12 07:47:59;;;;;;;3.97;1.42;;;;;;;17.25;54.29;99501.97;4791506;29;20047;-76
2020/12/12 07:50:24;;;;;;;2.65;1.45;;;;;;;17.24;54.24;99501.09;4802155;29;20067;-76
2020/12/12 07:52:50;;;;;;;2.22;1.40;;;;;;;17.29;54.18;99503.59;4796360;29;20560;-76
2020/12/12 07:55:25;;;;;;;1.95;1.40;;;;;;;17.28;54.48;99509.66;4787616;29;20077;-76
2020/12/12 07:57:56;;;;;;;2.17;1.50;;;;;;;17.26;54.50;99506.25;4803426;29;20654;-76
2020/12/12 08:00:22;;;;;;;3.97;1.60;;;;;;;17.26;54.24;99517.50;4801121;29;20042;-77
2020/12/12 08:02:58;;;;;;;2.35;1.27;;;;;;;17.27;54.34;99519.22;4800428;29;20031;-76
2020/12/12 08:05:23;;;;;;;2.30;1.20;;;;;;;17.27;54.51;99523.56;4805129;29;20065;-76
2020/12/12 08:07:49;;;;;;;2.53;1.35;;;;;;;17.26;54.48;99522.69;4787042;29;20043;-76
2020/12/12 08:10:14;;;;;;;1.80;1.33;;;;;;;17.28;54.51;99530.47;4795674;29;20043;-76
2020/12/12 08:12:42;;;;;;;2.58;1.40;;;;;;;17.28;54.24;99526.09;4786640;29;20092;-79
2020/12/12 08:15:15;;;;;;;2.90;1.30;;;;;;;17.28;54.58;99533.91;4806876;29;20035;-76
2020/12/12 08:17:40;;;;;;;2.13;1.25;;;;;;;17.31;54.40;99539.91;4809867;29;20031;-76
2020/12/12 08:20:12;;;;;;;2.05;1.30;;;;;;;17.31;54.37;99543.41;4807884;29;20055;-76
2020/12/12 08:22:38;;;;;;;2.10;1.27;;;;;;;17.31;54.37;99539.91;4814567;29;20474;-76
2020/12/12 08:25:06;;;;;;;2.50;1.30;;;;;;;17.32;54.39;99550.28;4794010;29;20050;-76
2020/12/12 08:27:32;;;;;;;2.05;1.30;;;;;;;17.32;54.56;99552.03;4806800;29;20027;-77
2020/12/12 08:29:59;;;;;;;1.80;1.13;;;;;;;17.32;54.58;99558.06;4798013;29;20035;-76
2020/12/12 08:32:33;;;;;;;2.42;1.40;;;;;;;17.30;54.60;99565.06;4807427;29;20489;-76
2020/12/12 08:35:29;;;;;;;1.80;1.27;;;;;;;17.35;54.92;99563.19;4801864;29;20057;-76
2020/12/12 08:38:00;;;;;;;2.90;1.40;;;;;;;17.34;54.97;99564.09;4808959;29;20045;-82
2020/12/12 08:43:05;;;;;;;4.72;1.90;;;;;;;17.20;54.79;99568.81;5532369;23;20061;-79
2020/12/12 08:45:32;;;;;;;11.32;2.92;;;;;;;17.22;54.42;99575.72;4859572;29;20078;-77
2020/12/12 08:48:06;;;;;;;28.90;3.47;;;;;;;17.29;53.92;99578.97;4874019;29;20080;-83
2020/12/12 08:58:17;;;;;;;9.43;3.08;;;;;;;17.33;53.75;99583.16;5434476;23;20061;-82
2020/12/12 09:00:42;;;;;;;10.60;2.83;;;;;;;17.36;54.03;99588.31;4867391;29;20085;-82
2020/12/12 09:03:08;;;;;;;8.80;2.53;;;;;;;17.35;54.12;99594.38;4860352;29;20026;-82
2020/12/12 09:05:35;;;;;;;7.25;2.45;;;;;;;17.35;54.41;99596.13;4833252;29;20127;-82
2020/12/12 09:08:18;;;;;;;9.70;2.45;;;;;;;17.34;54.53;99603.09;4860644;29;20037;-79
2020/12/12 09:10:43;;;;;;;8.07;2.15;;;;;;;17.36;54.46;99598.72;4854888;29;20038;-80
2020/12/12 09:13:10;;;;;;;6.88;2.53;;;;;;;17.34;54.50;99605.69;4823981;29;20076;-81
2020/12/12 09:15:35;;;;;;;7.63;2.10;;;;;;;17.41;54.32;99606.38;4850890;29;20055;-81
2020/12/12 09:18:02;;;;;;;8.25;2.25;;;;;;;17.39;54.32;99613.38;4838128;29;20549;-81
2020/12/12 09:20:27;;;;;;;4.50;1.92;;;;;;;17.35;54.45;99614.34;4849791;29;20064;-81
2020/12/12 09:22:53;;;;;;;7.18;1.95;;;;;;;17.33;54.51;99616.13;4832122;29;20065;-81
2020/12/12 09:25:18;;;;;;;6.32;1.90;;;;;;;17.31;54.61;99623.13;4850138;29;20053;-81
2020/12/12 09:27:44;;;;;;;4.90;2.20;;;;;;;17.31;54.69;99631.78;4855847;29;20025;-80
2020/12/12 09:30:09;;;;;;;5.82;2.20;;;;;;;17.33;54.27;99629.97;4851374;29;20495;-82
2020/12/12 09:32:35;;;;;;;6.45;2.40;;;;;;;17.33;54.49;99637.78;4836012;29;20025;-82
2020/12/12 09:37:35;;;;;;;4.97;1.90;;;;;;;17.30;54.70;99640.47;5298065;23;20065;-82
2020/12/12 09:40:01;;;;;;;9.43;2.05;;;;;;;17.33;54.71;99650.78;4871613;29;20123;-81
2020/12/12 09:42:26;;;;;;;5.13;1.77;;;;;;;17.28;55.14;99650.06;4865719;29;20131;-82
2020/12/12 09:44:52;;;;;;;8.40;1.75;;;;;;;17.25;55.06;99651.00;4865628;29;20067;-81
2020/12/12 09:47:17;;;;;;;4.18;2.10;;;;;;;17.26;54.98;99646.66;4848928;29;20480;-81
2020/12/12 09:49:42;;;;;;;5.75;2.22;;;;;;;17.20;54.95;99652.88;4819967;29;20036;-79
2020/12/12 09:52:08;;;;;;;5.40;2.13;;;;;;;17.25;54.92;99653.59;4832827;29;20037;-79
2020/12/12 09:54:35;;;;;;;6.57;2.20;;;;;;;17.24;54.81;99658.84;4852499;29;20084;-79
2020/12/12 09:57:00;;;;;;;4.10;1.80;;;;;;;17.24;54.74;99653.63;4882216;29;20028;-79
2020/12/12 09:59:25;;;;;;;5.15;1.90;;;;;;;17.26;54.60;99657.06;4864662;29;20473;-81
2020/12/12 10:01:51;;;;;;;3.40;2.05;;;;;;;17.28;54.58;99661.31;4835368;29;20051;-82
2020/12/12 10:04:16;;;;;;;3.88;1.73;;;;;;;17.28;54.40;99663.06;4877233;29;20068;-81
2020/12/12 10:06:42;;;;;;;10.43;2.03;;;;;;;17.25;54.48;99666.59;4881908;29;20052;-82
2020/12/12 10:09:08;;;;;;;4.80;2.20;;;;;;;17.26;54.22;99675.25;4895428;29;20487;-81
2020/12/12 10:11:33;;;;;;;5.47;2.20;;;;;;;17.25;54.69;99673.56;4894311;29;20060;-81
2020/12/12 10:13:59;;;;;;;3.90;1.92;;;;;;;17.22;54.61;99671.91;4856576;29;20115;-81
2020/12/12 10:16:24;;;;;;;3.90;1.85;;;;;;;17.22;54.84;99671.91;4865634;29;20385;-81
2020/12/12 10:18:49;;;;;;;2.95;2.10;;;;;;;17.21;54.55;99672.78;4863577;29;20037;-81
2020/12/12 10:21:15;;;;;;;3.90;2.00;;;;;;;17.19;54.53;99677.16;4864296;29;20037;-81
2020/12/12 10:23:40;;;;;;;3.45;1.92;;;;;;;17.18;54.75;99678.06;4847069;29;20485;-81
2020/12/12 10:26:06;;;;;;;3.17;1.85;;;;;;;17.18;54.51;99680.66;4864892;29;20032;-81
2020/12/12 10:28:31;;;;;;;4.93;2.03;;;;;;;17.18;54.52;99682.38;4865923;29;20071;-81
2020/12/12 10:30:57;;;;;;;3.30;1.90;;;;;;;17.17;54.63;99675.50;4849729;29;20033;-81
2020/12/12 10:33:22;;;;;;;5.10;2.05;;;;;;;17.19;54.74;99678.91;4835091;29;20036;-81
2020/12/12 10:35:47;;;;;;;3.90;1.98;;;;;;;17.19;54.41;99677.16;4866061;29;20445;-81
2020/12/12 10:38:14;;;;;;;4.07;2.08;;;;;;;17.19;54.33;99684.97;4834718;29;20053;-79
2020/12/12 10:40:42;;;;;;;6.72;2.10;;;;;;;17.21;54.30;99685.78;4850315;29;20032;-79
2020/12/12 10:43:09;;;;;;;3.50;1.90;;;;;;;17.22;54.43;99684.03;4838158;29;20029;-81
2020/12/12 10:45:35;;;;;;;5.47;1.80;;;;;;;17.20;54.47;99684.09;4852634;29;20489;-82
2020/12/12 10:48:00;;;;;;;4.25;2.05;;;;;;;17.24;54.20;99692.63;4826467;29;20057;-81
2020/12/12 10:50:25;;;;;;;3.05;1.92;;;;;;;17.22;54.11;99690.09;4865436;29;20096;-81
2020/12/12 10:52:52;;;;;;;4.30;2.30;;;;;;;17.24;54.39;99695.22;4846416;29;20057;-81
2020/12/12 10:55:17;;;;;;;4.13;2.40;;;;;;;17.23;54.30;99689.19;4855580;29;20392;-81
2020/12/12 10:57:43;;;;;;;2.83;1.90;;;;;;;17.24;53.99;99697.84;4865615;29;20025;-79
2020/12/12 11:00:23;;;;;;;3.13;1.95;;;;;;;17.30;53.76;99697.69;4835719;29;20120;-78
2020/12/12 11:02:48;;;;;;;3.25;2.22;;;;;;;17.32;53.91;99695.91;4882943;29;20029;-81
2020/12/12 11:05:14;;;;;;;5.78;2.40;;;;;;;17.33;53.74;99691.53;4850889;29;20025;-79
2020/12/12 11:07:39;;;;;;;3.08;1.92;;;;;;;17.34;53.66;99688.91;4847614;29;20089;-81
2020/12/12 11:10:04;;;;;;;3.97;2.22;;;;;;;17.34;53.87;99698.47;4847597;29;20389;-79
2020/12/12 11:12:30;;;;;;;4.03;2.00;;;;;;;17.32;53.95;99685.50;4816732;29;20052;-81
2020/12/12 11:14:56;;;;;;;2.58;1.80;;;;;;;17.32;53.71;99692.44;4847385;29;20033;-79
2020/12/12 11:17:21;;;;;;;2.95;1.88;;;;;;;17.30;53.90;99697.69;4832455;29;20116;-79
2020/12/12 11:19:47;;;;;;;3.35;2.10;;;;;;;17.30;53.93;99704.63;4849021;29;20129;-80
2020/12/12 11:22:12;;;;;;;2.40;2.00;;;;;;;17.31;53.85;99709.81;4848585;29;20041;-81
2020/12/12 11:24:37;;;;;;;3.03;2.00;;;;;;;17.28;54.08;99710.72;4830895;29;20067;-81
2020/12/12 11:27:03;;;;;;;2.78;1.75;;;;;;;17.26;53.71;99709.91;4830962;29;20478;-81
2020/12/12 11:29:28;;;;;;;3.45;2.20;;;;;;;17.28;53.84;99707.25;4861945;29;20404;-81
2020/12/12 11:31:54;;;;;;;2.85;1.90;;;;;;;17.27;53.67;99714.22;4864334;29;20397;-81
2020/12/12 11:34:32;;;;;;;2.22;1.80;;;;;;;17.26;53.92;99714.25;4876036;29;20049;-80
2020/12/12 11:37:17;;;;;;;3.10;2.00;;;;;;;17.25;53.90;99716.00;4848232;29;20045;-81
2020/12/12 11:39:57;;;;;;;2.75;1.95;;;;;;;17.23;53.96;99720.38;4864479;29;20074;-80
2020/12/12 11:42:44;;;;;;;3.22;2.00;;;;;;;17.22;54.04;99720.41;4866240;29;20048;-81
2020/12/12 11:47:50;;;;;;;3.78;2.22;;;;;;;17.24;54.07;99721.22;4843113;29;20093;-81
2020/12/12 11:50:16;;;;;;;2.88;2.20;;;;;;;17.21;53.99;99726.53;4853522;29;20037;-81